sensor_id;sensor_type;location;lat;lon;timestamp;pressure;altitude;pressure_sealevel;temperature;humidity
32761;BME280;19126;47.472;7.850;2024-03-07T00:02:25;75140.41;;;-146.25;48.40
32761;BME280;19126;47.472;7.850;2024-03-07T00:04:54;75134.41;;;-146.25;47.76
32761;BME280;19126;47.472;7.850;2024-03-07T00:07:22;75136.41;;;-146.25;47.94
32761;BME280;19126;47.472;7.850;2024-03-07T00:09:49;75140.41;;;-146.25;47.64
32761;BME280;19126;47.472;7.850;2024-03-07T00:12:18;75140.41;;;-146.25;47.88
32761;BME280;19126;47.472;7.850;2024-03-07T00:14:46;75140.41;;;-146.25;47.33
32761;BME280;19126;47.472;7.850;2024-03-07T00:17:14;75136.41;;;-146.25;47.28
32761;BME280;19126;47.472;7.850;2024-03-07T00:19:41;75126.38;;;-146.25;47.48
32761;BME280;19126;47.472;7.850;2024-03-07T00:22:09;75124.38;;;-146.25;46.94
32761;BME280;19126;47.472;7.850;2024-03-07T00:24:36;75134.41;;;-146.25;47.48
32761;BME280;19126;47.472;7.850;2024-03-07T00:27:05;75128.38;;;-146.25;47.22
32761;BME280;19126;47.472;7.850;2024-03-07T00:29:32;75134.41;;;-146.25;47.15
32761;BME280;19126;47.472;7.850;2024-03-07T00:32:01;75126.38;;;-146.25;47.29
32761;BME280;19126;47.472;7.850;2024-03-07T00:34:30;75124.38;;;-146.25;46.73
32761;BME280;19126;47.472;7.850;2024-03-07T00:36:57;75130.38;;;-146.25;46.40
32761;BME280;19126;47.472;7.850;2024-03-07T00:39:25;75124.38;;;-146.25;46.23
32761;BME280;19126;47.472;7.850;2024-03-07T00:41:52;75118.34;;;-146.25;45.60
32761;BME280;19126;47.472;7.850;2024-03-07T00:44:19;75110.34;;;-146.25;46.18
32761;BME280;19126;47.472;7.850;2024-03-07T00:46:47;75104.31;;;-146.25;45.78
32761;BME280;19126;47.472;7.850;2024-03-07T00:49:14;75112.34;;;-146.25;46.54
32761;BME280;19126;47.472;7.850;2024-03-07T00:51:43;75114.34;;;-146.25;46.56
32761;BME280;19126;47.472;7.850;2024-03-07T00:54:10;75112.34;;;-146.25;46.75
32761;BME280;19126;47.472;7.850;2024-03-07T00:56:38;75104.31;;;-146.25;46.50
32761;BME280;19126;47.472;7.850;2024-03-07T00:59:06;75104.31;;;-146.25;46.51
32761;BME280;19126;47.472;7.850;2024-03-07T01:01:33;75104.31;;;-146.25;46.37
32761;BME280;19126;47.472;7.850;2024-03-07T01:04:02;75098.31;;;-146.25;46.93
32761;BME280;19126;47.472;7.850;2024-03-07T01:06:30;75094.31;;;-146.25;46.60
32761;BME280;19126;47.472;7.850;2024-03-07T01:08:58;75098.31;;;-146.25;46.71
32761;BME280;19126;47.472;7.850;2024-03-07T01:11:26;75096.31;;;-146.25;46.53
32761;BME280;19126;47.472;7.850;2024-03-07T01:13:53;75098.31;;;-146.25;46.99
32761;BME280;19126;47.472;7.850;2024-03-07T01:16:21;75096.31;;;-146.25;46.27
32761;BME280;19126;47.472;7.850;2024-03-07T01:18:48;75102.31;;;-146.25;46.53
32761;BME280;19126;47.472;7.850;2024-03-07T01:21:16;75098.31;;;-146.25;47.41
32761;BME280;19126;47.472;7.850;2024-03-07T01:23:43;75100.31;;;-146.25;46.83
32761;BME280;19126;47.472;7.850;2024-03-07T01:26:12;75100.31;;;-146.25;46.75
32761;BME280;19126;47.472;7.850;2024-03-07T01:28:40;75094.31;;;-146.25;47.08
32761;BME280;19126;47.472;7.850;2024-03-07T01:31:07;75088.28;;;-146.25;47.12
32761;BME280;19126;47.472;7.850;2024-03-07T01:33:36;75088.28;;;-146.25;46.39
32761;BME280;19126;47.472;7.850;2024-03-07T01:36:04;75078.25;;;-146.25;46.80
32761;BME280;19126;47.472;7.850;2024-03-07T01:38:32;75074.25;;;-146.25;46.68
32761;BME280;19126;47.472;7.850;2024-03-07T01:40:59;75080.25;;;-146.25;47.79
32761;BME280;19126;47.472;7.850;2024-03-07T01:43:28;75078.25;;;-146.25;47.53
32761;BME280;19126;47.472;7.850;2024-03-07T01:45:57;75078.25;;;-146.25;47.10
32761;BME280;19126;47.472;7.850;2024-03-07T01:48:27;75074.25;;;-146.25;46.99
32761;BME280;19126;47.472;7.850;2024-03-07T01:50:55;75076.25;;;-146.25;47.30
32761;BME280;19126;47.472;7.850;2024-03-07T01:53:25;75068.22;;;-146.25;47.47
32761;BME280;19126;47.472;7.850;2024-03-07T01:55:52;75064.22;;;-146.25;46.94
32761;BME280;19126;47.472;7.850;2024-03-07T01:58:21;75064.22;;;-146.25;47.06
32761;BME280;19126;47.472;7.850;2024-03-07T02:00:50;75064.22;;;-146.25;46.80
32761;BME280;19126;47.472;7.850;2024-03-07T02:03:17;75062.22;;;-146.25;46.93
32761;BME280;19126;47.472;7.850;2024-03-07T02:05:45;75056.22;;;-146.25;46.71
32761;BME280;19126;47.472;7.850;2024-03-07T02:08:12;75054.19;;;-146.25;46.23
32761;BME280;19126;47.472;7.850;2024-03-07T02:10:41;75046.19;;;-146.25;46.14
32761;BME280;19126;47.472;7.850;2024-03-07T02:13:08;75048.19;;;-146.25;46.28
32761;BME280;19126;47.472;7.850;2024-03-07T02:15:35;75046.19;;;-146.25;46.20
32761;BME280;19126;47.472;7.850;2024-03-07T02:18:04;75044.19;;;-146.25;45.78
32761;BME280;19126;47.472;7.850;2024-03-07T02:20:32;75042.16;;;-146.25;46.40
32761;BME280;19126;47.472;7.850;2024-03-07T02:23:01;75040.16;;;-146.25;45.89
32761;BME280;19126;47.472;7.850;2024-03-07T02:25:28;75040.16;;;-146.25;46.43
32761;BME280;19126;47.472;7.850;2024-03-07T02:27:56;75034.16;;;-146.25;46.07
32761;BME280;19126;47.472;7.850;2024-03-07T02:30:23;75032.16;;;-146.25;46.06
32761;BME280;19126;47.472;7.850;2024-03-07T02:32:50;75030.13;;;-146.25;45.90
32761;BME280;19126;47.472;7.850;2024-03-07T02:35:21;75036.16;;;-146.25;45.53
32761;BME280;19126;47.472;7.850;2024-03-07T02:37:48;75034.16;;;-146.25;45.90
32761;BME280;19126;47.472;7.850;2024-03-07T02:40:17;75036.16;;;-146.25;46.22
32761;BME280;19126;47.472;7.850;2024-03-07T02:42:45;75036.16;;;-146.25;45.95
32761;BME280;19126;47.472;7.850;2024-03-07T02:45:12;75034.16;;;-146.25;45.56
32761;BME280;19126;47.472;7.850;2024-03-07T02:47:41;75032.16;;;-146.25;45.25
32761;BME280;19126;47.472;7.850;2024-03-07T02:50:10;75024.13;;;-146.25;44.92
32761;BME280;19126;47.472;7.850;2024-03-07T02:52:38;75012.09;;;-146.25;44.69
32761;BME280;19126;47.472;7.850;2024-03-07T02:55:06;75026.13;;;-146.25;45.83
32761;BME280;19126;47.472;7.850;2024-03-07T02:57:37;75026.13;;;-146.25;45.33
32761;BME280;19126;47.472;7.850;2024-03-07T03:00:06;75030.13;;;-146.25;45.51
32761;BME280;19126;47.472;7.850;2024-03-07T03:02:46;75022.13;;;-146.25;44.82
32761;BME280;19126;47.472;7.850;2024-03-07T03:05:14;75028.13;;;-146.25;44.13
32761;BME280;19126;47.472;7.850;2024-03-07T03:07:42;75024.13;;;-146.25;43.86
32761;BME280;19126;47.472;7.850;2024-03-07T03:10:19;75020.13;;;-146.25;43.31
32761;BME280;19126;47.472;7.850;2024-03-07T03:12:48;75022.13;;;-146.25;43.31
32761;BME280;19126;47.472;7.850;2024-03-07T03:15:15;75026.13;;;-146.25;42.69
32761;BME280;19126;47.472;7.850;2024-03-07T03:17:46;75024.13;;;-146.25;42.30
32761;BME280;19126;47.472;7.850;2024-03-07T03:20:14;75016.09;;;-146.25;41.46
32761;BME280;19126;47.472;7.850;2024-03-07T03:22:54;75016.09;;;-146.25;42.09
32761;BME280;19126;47.472;7.850;2024-03-07T03:25:22;75024.13;;;-146.25;41.18
32761;BME280;19126;47.472;7.850;2024-03-07T03:27:50;75016.09;;;-146.25;40.69
32761;BME280;19126;47.472;7.850;2024-03-07T03:30:18;75022.13;;;-146.25;40.64
32761;BME280;19126;47.472;7.850;2024-03-07T03:32:46;75016.09;;;-146.25;40.24
32761;BME280;19126;47.472;7.850;2024-03-07T03:35:14;75016.09;;;-146.25;40.06
32761;BME280;19126;47.472;7.850;2024-03-07T03:37:42;75006.09;;;-146.25;39.57
32761;BME280;19126;47.472;7.850;2024-03-07T03:40:11;75000.06;;;-146.25;39.30
32761;BME280;19126;47.472;7.850;2024-03-07T03:42:40;74996.06;;;-146.25;39.42
32761;BME280;19126;47.472;7.850;2024-03-07T03:45:10;75004.06;;;-146.25;40.21
32761;BME280;19126;47.472;7.850;2024-03-07T03:47:40;75004.06;;;-146.25;39.78
32761;BME280;19126;47.472;7.850;2024-03-07T03:50:10;75000.06;;;-146.25;39.96
32761;BME280;19126;47.472;7.850;2024-03-07T03:52:39;75008.09;;;-146.25;40.31
32761;BME280;19126;47.472;7.850;2024-03-07T03:55:07;75008.09;;;-146.25;39.93
32761;BME280;19126;47.472;7.850;2024-03-07T03:57:35;75018.09;;;-146.25;40.28
32761;BME280;19126;47.472;7.850;2024-03-07T04:00:05;75008.09;;;-146.25;39.92
32761;BME280;19126;47.472;7.850;2024-03-07T04:02:40;75006.09;;;-146.25;39.95
32761;BME280;19126;47.472;7.850;2024-03-07T04:05:08;75002.06;;;-146.25;39.58
32761;BME280;19126;47.472;7.850;2024-03-07T04:07:36;75010.09;;;-146.25;39.92
32761;BME280;19126;47.472;7.850;2024-03-07T04:10:05;75010.09;;;-146.25;39.18
32761;BME280;19126;47.472;7.850;2024-03-07T04:12:34;75006.09;;;-146.25;38.96
32761;BME280;19126;47.472;7.850;2024-03-07T04:15:04;75000.06;;;-146.25;39.22
32761;BME280;19126;47.472;7.850;2024-03-07T04:17:33;75000.06;;;-146.25;39.30
32761;BME280;19126;47.472;7.850;2024-03-07T04:20:03;75000.06;;;-146.25;38.94
32761;BME280;19126;47.472;7.850;2024-03-07T04:22:31;74998.06;;;-146.25;39.15
32761;BME280;19126;47.472;7.850;2024-03-07T04:24:58;74998.06;;;-146.25;38.92
32761;BME280;19126;47.472;7.850;2024-03-07T04:27:26;74990.03;;;-146.25;38.58
32761;BME280;19126;47.472;7.850;2024-03-07T04:29:53;74988.03;;;-146.25;38.24
32761;BME280;19126;47.472;7.850;2024-03-07T04:32:21;74988.03;;;-146.25;38.30
32761;BME280;19126;47.472;7.850;2024-03-07T04:34:49;74986.03;;;-146.25;38.17
32761;BME280;19126;47.472;7.850;2024-03-07T04:37:17;74988.03;;;-146.25;38.68
32761;BME280;19126;47.472;7.850;2024-03-07T04:39:44;74984.03;;;-146.25;38.44
32761;BME280;19126;47.472;7.850;2024-03-07T04:42:12;74986.03;;;-146.25;38.82
32761;BME280;19126;47.472;7.850;2024-03-07T04:44:39;74984.03;;;-146.25;38.12
32761;BME280;19126;47.472;7.850;2024-03-07T04:47:07;74988.03;;;-146.25;38.62
32761;BME280;19126;47.472;7.850;2024-03-07T04:49:34;74988.03;;;-146.25;38.37
32761;BME280;19126;47.472;7.850;2024-03-07T04:52:03;74984.03;;;-146.25;38.92
32761;BME280;19126;47.472;7.850;2024-03-07T04:54:33;74965.97;;;-146.25;38.20
32761;BME280;19126;47.472;7.850;2024-03-07T04:57:01;74976.00;;;-146.25;39.54
32761;BME280;19126;47.472;7.850;2024-03-07T04:59:31;74965.97;;;-146.25;40.04
32761;BME280;19126;47.472;7.850;2024-03-07T05:01:58;74980.00;;;-146.25;41.15
32761;BME280;19126;47.472;7.850;2024-03-07T05:04:25;74984.03;;;-146.25;41.02
32761;BME280;19126;47.472;7.850;2024-03-07T05:06:55;74982.03;;;-146.25;41.98
32761;BME280;19126;47.472;7.850;2024-03-07T05:09:23;74980.00;;;-146.25;42.69
32761;BME280;19126;47.472;7.850;2024-03-07T05:11:53;74988.03;;;-146.25;43.32
32761;BME280;19126;47.472;7.850;2024-03-07T05:14:21;74986.03;;;-146.25;43.96
32761;BME280;19126;47.472;7.850;2024-03-07T05:16:48;74988.03;;;-146.25;43.55
32761;BME280;19126;47.472;7.850;2024-03-07T05:19:31;74978.00;;;-146.25;44.21
32761;BME280;19126;47.472;7.850;2024-03-07T05:21:59;74986.03;;;-146.25;44.64
32761;BME280;19126;47.472;7.850;2024-03-07T05:24:27;74992.03;;;-146.25;45.23
32761;BME280;19126;47.472;7.850;2024-03-07T05:26:55;74982.03;;;-146.25;45.00
32761;BME280;19126;47.472;7.850;2024-03-07T05:29:23;74986.03;;;-146.25;46.22
32761;BME280;19126;47.472;7.850;2024-03-07T05:31:51;74990.03;;;-146.25;46.29
32761;BME280;19126;47.472;7.850;2024-03-07T05:34:18;74986.03;;;-146.25;46.41
32761;BME280;19126;47.472;7.850;2024-03-07T05:36:46;74982.03;;;-146.25;46.49
32761;BME280;19126;47.472;7.850;2024-03-07T05:39:14;74994.06;;;-146.25;47.40
32761;BME280;19126;47.472;7.850;2024-03-07T05:41:43;74992.03;;;-146.25;47.79
32761;BME280;19126;47.472;7.850;2024-03-07T05:44:13;75002.06;;;-146.25;47.82
32761;BME280;19126;47.472;7.850;2024-03-07T05:46:42;74996.06;;;-146.25;47.50
32761;BME280;19126;47.472;7.850;2024-03-07T05:49:14;75006.09;;;-146.25;47.88
32761;BME280;19126;47.472;7.850;2024-03-07T05:51:43;74992.03;;;-146.25;47.49
32761;BME280;19126;47.472;7.850;2024-03-07T05:54:11;75004.06;;;-146.25;47.62
32761;BME280;19126;47.472;7.850;2024-03-07T05:56:39;75010.09;;;-146.25;47.20
32761;BME280;19126;47.472;7.850;2024-03-07T05:59:07;75002.06;;;-146.25;46.88
32761;BME280;19126;47.472;7.850;2024-03-07T06:01:37;74990.03;;;-146.25;46.43
32761;BME280;19126;47.472;7.850;2024-03-07T06:04:06;74996.06;;;-146.25;47.52
32761;BME280;19126;47.472;7.850;2024-03-07T06:06:35;74994.06;;;-146.25;47.87
32761;BME280;19126;47.472;7.850;2024-03-07T06:09:07;74996.06;;;-146.25;47.41
32761;BME280;19126;47.472;7.850;2024-03-07T06:11:34;74988.03;;;-146.25;48.25
32761;BME280;19126;47.472;7.850;2024-03-07T06:14:02;74992.03;;;-146.25;48.95
32761;BME280;19126;47.472;7.850;2024-03-07T06:16:30;74990.03;;;-146.25;48.74
32761;BME280;19126;47.472;7.850;2024-03-07T06:19:00;74980.00;;;-146.25;49.42
32761;BME280;19126;47.472;7.850;2024-03-07T06:21:28;74982.03;;;-146.25;50.30
32761;BME280;19126;47.472;7.850;2024-03-07T06:23:56;74992.03;;;-146.25;50.27
32761;BME280;19126;47.472;7.850;2024-03-07T06:26:26;74996.06;;;-146.25;50.28
32761;BME280;19126;47.472;7.850;2024-03-07T06:29:04;74990.03;;;-146.25;50.10
32761;BME280;19126;47.472;7.850;2024-03-07T06:31:33;74984.03;;;-146.25;50.49
32761;BME280;19126;47.472;7.850;2024-03-07T06:34:01;74988.03;;;-146.25;51.09
32761;BME280;19126;47.472;7.850;2024-03-07T06:36:29;74988.03;;;-146.25;51.95
32761;BME280;19126;47.472;7.850;2024-03-07T06:38:58;74986.03;;;-146.25;51.79
32761;BME280;19126;47.472;7.850;2024-03-07T06:41:25;74978.00;;;-146.25;51.96
32761;BME280;19126;47.472;7.850;2024-03-07T06:43:53;74980.00;;;-146.25;51.76
32761;BME280;19126;47.472;7.850;2024-03-07T06:46:21;74988.03;;;-146.25;51.57
32761;BME280;19126;47.472;7.850;2024-03-07T06:48:49;74984.03;;;-146.25;51.68
32761;BME280;19126;47.472;7.850;2024-03-07T06:51:18;74974.00;;;-146.25;50.54
32761;BME280;19126;47.472;7.850;2024-03-07T06:53:46;74976.00;;;-146.25;50.53
32761;BME280;19126;47.472;7.850;2024-03-07T06:56:14;74961.97;;;-146.25;50.58
32761;BME280;19126;47.472;7.850;2024-03-07T06:58:42;74965.97;;;-146.25;51.82
32761;BME280;19126;47.472;7.850;2024-03-07T07:01:10;74959.97;;;-146.25;51.86
32761;BME280;19126;47.472;7.850;2024-03-07T07:03:41;74961.97;;;-146.25;51.96
32761;BME280;19126;47.472;7.850;2024-03-07T07:06:10;74959.97;;;-146.25;52.82
32761;BME280;19126;47.472;7.850;2024-03-07T07:08:39;74959.97;;;-146.25;53.97
32761;BME280;19126;47.472;7.850;2024-03-07T07:11:06;74959.97;;;-146.25;55.11
32761;BME280;19126;47.472;7.850;2024-03-07T07:13:33;74951.94;;;-146.25;55.16
32761;BME280;19126;47.472;7.850;2024-03-07T07:16:06;74945.94;;;-146.25;55.69
32761;BME280;19126;47.472;7.850;2024-03-07T07:18:35;74931.91;;;-146.25;56.63
32761;BME280;19126;47.472;7.850;2024-03-07T07:21:03;74931.91;;;-146.25;57.88
32761;BME280;19126;47.472;7.850;2024-03-07T07:23:31;74933.91;;;-146.25;60.65
32761;BME280;19126;47.472;7.850;2024-03-07T07:26:00;74931.91;;;-146.25;63.89
32761;BME280;19126;47.472;7.850;2024-03-07T07:28:28;74919.88;;;-146.25;67.44
32761;BME280;19126;47.472;7.850;2024-03-07T07:30:55;74915.84;;;-146.25;70.45
32761;BME280;19126;47.472;7.850;2024-03-07T07:33:22;74911.84;;;-146.25;73.27
32761;BME280;19126;47.472;7.850;2024-03-07T07:35:49;74907.84;;;-146.25;75.23
32761;BME280;19126;47.472;7.850;2024-03-07T07:38:17;74895.81;;;-146.25;76.46
32761;BME280;19126;47.472;7.850;2024-03-07T07:40:44;74901.81;;;-146.25;77.85
32761;BME280;19126;47.472;7.850;2024-03-07T07:43:13;74899.81;;;-146.25;77.67
32761;BME280;19126;47.472;7.850;2024-03-07T07:45:40;74897.81;;;-146.25;78.07
32761;BME280;19126;47.472;7.850;2024-03-07T07:48:08;74899.81;;;-146.25;79.06
32761;BME280;19126;47.472;7.850;2024-03-07T07:50:37;74893.81;;;-146.25;79.05
32761;BME280;19126;47.472;7.850;2024-03-07T07:53:04;74895.81;;;-146.25;79.75
32761;BME280;19126;47.472;7.850;2024-03-07T07:55:35;74891.81;;;-146.25;80.23
32761;BME280;19126;47.472;7.850;2024-03-07T07:58:03;74897.81;;;-146.25;80.04
32761;BME280;19126;47.472;7.850;2024-03-07T08:00:32;74893.81;;;-146.25;80.14
32761;BME280;19126;47.472;7.850;2024-03-07T08:03:02;74887.78;;;-146.25;80.10
32761;BME280;19126;47.472;7.850;2024-03-07T08:05:31;74879.78;;;-146.25;79.46
32761;BME280;19126;47.472;7.850;2024-03-07T08:08:00;74875.75;;;-146.25;78.71
32761;BME280;19126;47.472;7.850;2024-03-07T08:10:29;74867.75;;;-146.25;78.51
32761;BME280;19126;47.472;7.850;2024-03-07T08:12:56;74865.75;;;-146.25;79.19
32761;BME280;19126;47.472;7.850;2024-03-07T08:15:26;74867.75;;;-146.25;78.79
32761;BME280;19126;47.472;7.850;2024-03-07T08:17:55;74867.75;;;-146.25;79.07
32761;BME280;19126;47.472;7.850;2024-03-07T08:20:25;74861.72;;;-146.25;79.65
32761;BME280;19126;47.472;7.850;2024-03-07T08:22:54;74857.72;;;-146.25;80.60
32761;BME280;19126;47.472;7.850;2024-03-07T08:25:23;74853.72;;;-146.25;81.63
32761;BME280;19126;47.472;7.850;2024-03-07T08:27:54;74855.72;;;-146.25;83.45
32761;BME280;19126;47.472;7.850;2024-03-07T08:30:22;74859.72;;;-146.25;83.39
32761;BME280;19126;47.472;7.850;2024-03-07T08:32:51;74847.69;;;-146.25;83.28
32761;BME280;19126;47.472;7.850;2024-03-07T08:35:21;74853.72;;;-146.25;83.56
32761;BME280;19126;47.472;7.850;2024-03-07T08:37:50;74843.69;;;-146.25;83.22
32761;BME280;19126;47.472;7.850;2024-03-07T08:40:20;74833.66;;;-146.25;84.78
32761;BME280;19126;47.472;7.850;2024-03-07T08:42:49;74839.66;;;-146.25;87.75
32761;BME280;19126;47.472;7.850;2024-03-07T08:45:17;74837.66;;;-146.25;88.53
32761;BME280;19126;47.472;7.850;2024-03-07T08:47:47;74843.69;;;-146.25;88.36
32761;BME280;19126;47.472;7.850;2024-03-07T08:50:16;74847.69;;;-146.25;87.99
32761;BME280;19126;47.472;7.850;2024-03-07T08:52:46;74847.69;;;-146.25;86.80
32761;BME280;19126;47.472;7.850;2024-03-07T08:55:15;74845.69;;;-146.25;86.27
32761;BME280;19126;47.472;7.850;2024-03-07T08:57:43;74855.72;;;-146.25;86.47
32761;BME280;19126;47.472;7.850;2024-03-07T09:00:13;74845.69;;;-146.25;86.73
32761;BME280;19126;47.472;7.850;2024-03-07T09:02:49;74853.72;;;-146.25;85.48
32761;BME280;19126;47.472;7.850;2024-03-07T09:05:18;74843.69;;;-146.25;86.00
32761;BME280;19126;47.472;7.850;2024-03-07T09:07:47;74843.69;;;-146.25;85.88
32761;BME280;19126;47.472;7.850;2024-03-07T09:10:15;74839.66;;;-146.25;85.45
32761;BME280;19126;47.472;7.850;2024-03-07T09:12:43;74841.69;;;-146.25;84.18
32761;BME280;19126;47.472;7.850;2024-03-07T09:15:11;74831.66;;;-146.25;84.11
32761;BME280;19126;47.472;7.850;2024-03-07T09:17:39;74833.66;;;-146.25;85.38
32761;BME280;19126;47.472;7.850;2024-03-07T09:20:08;74837.66;;;-146.25;86.25
32761;BME280;19126;47.472;7.850;2024-03-07T09:22:40;74829.66;;;-146.25;86.25
32761;BME280;19126;47.472;7.850;2024-03-07T09:25:10;74821.63;;;-146.25;87.71
32761;BME280;19126;47.472;7.850;2024-03-07T09:27:38;74827.66;;;-146.25;88.02
32761;BME280;19126;47.472;7.850;2024-03-07T09:30:07;74819.63;;;-146.25;86.85
32761;BME280;19126;47.472;7.850;2024-03-07T09:32:39;74825.63;;;-146.25;86.57
32761;BME280;19126;47.472;7.850;2024-03-07T09:35:08;74801.59;;;-146.25;87.66
32761;BME280;19126;47.472;7.850;2024-03-07T09:37:39;74795.56;;;-146.25;88.18
32761;BME280;19126;47.472;7.850;2024-03-07T09:40:10;74787.53;;;-146.25;88.03
32761;BME280;19126;47.472;7.850;2024-03-07T09:42:43;74781.53;;;-146.25;87.79
32761;BME280;19126;47.472;7.850;2024-03-07T09:45:15;74777.53;;;-146.25;88.17
32761;BME280;19126;47.472;7.850;2024-03-07T09:47:46;74785.53;;;-146.25;88.27
32761;BME280;19126;47.472;7.850;2024-03-07T09:50:16;74781.53;;;-146.25;88.64
32761;BME280;19126;47.472;7.850;2024-03-07T09:52:46;74771.50;;;-146.25;88.48
32761;BME280;19126;47.472;7.850;2024-03-07T09:55:17;74767.50;;;-146.25;88.39
32761;BME280;19126;47.472;7.850;2024-03-07T09:57:46;74767.50;;;-146.25;88.64
32761;BME280;19126;47.472;7.850;2024-03-07T10:00:17;74759.47;;;-146.25;88.71
32761;BME280;19126;47.472;7.850;2024-03-07T10:02:53;74753.47;;;-146.25;89.05
32761;BME280;19126;47.472;7.850;2024-03-07T10:05:22;74749.47;;;-146.25;88.65
32761;BME280;19126;47.472;7.850;2024-03-07T10:07:51;74739.44;;;-146.25;88.71
32761;BME280;19126;47.472;7.850;2024-03-07T10:10:20;74753.47;;;-146.25;88.70
32761;BME280;19126;47.472;7.850;2024-03-07T10:12:48;74751.47;;;-146.25;88.65
32761;BME280;19126;47.472;7.850;2024-03-07T10:15:16;74753.47;;;-146.25;88.65
32761;BME280;19126;47.472;7.850;2024-03-07T10:17:44;74743.44;;;-146.25;88.22
32761;BME280;19126;47.472;7.850;2024-03-07T10:20:13;74745.44;;;-146.25;88.31
32761;BME280;19126;47.472;7.850;2024-03-07T10:22:41;74733.41;;;-146.25;88.18
32761;BME280;19126;47.472;7.850;2024-03-07T10:25:08;74737.44;;;-146.25;87.49
32761;BME280;19126;47.472;7.850;2024-03-07T10:27:41;74735.41;;;-146.25;87.05
32761;BME280;19126;47.472;7.850;2024-03-07T10:30:10;74717.38;;;-146.25;86.74
32761;BME280;19126;47.472;7.850;2024-03-07T10:32:46;74711.38;;;-146.25;87.00
32761;BME280;19126;47.472;7.850;2024-03-07T10:35:14;74697.34;;;-146.25;86.84
32761;BME280;19126;47.472;7.850;2024-03-07T10:37:41;74683.28;;;-146.25;85.39
32761;BME280;19126;47.472;7.850;2024-03-07T10:40:12;74679.28;;;-146.25;85.11
32761;BME280;19126;47.472;7.850;2024-03-07T10:42:46;74679.28;;;-146.25;86.24
32761;BME280;19126;47.472;7.850;2024-03-07T10:45:19;74665.25;;;-146.25;86.75
32761;BME280;19126;47.472;7.850;2024-03-07T10:47:54;74659.25;;;-146.25;87.09
32761;BME280;19126;47.472;7.850;2024-03-07T10:50:38;74665.25;;;-146.25;85.63
32761;BME280;19126;47.472;7.850;2024-03-07T10:53:19;74661.25;;;-146.25;83.92
32761;BME280;19126;47.472;7.850;2024-03-07T10:56:09;74667.25;;;-146.25;83.20
32761;BME280;19126;47.472;7.850;2024-03-07T10:58:51;74679.28;;;-146.25;83.05
32761;BME280;19126;47.472;7.850;2024-03-07T11:01:26;74665.25;;;-146.25;84.86
32761;BME280;19126;47.472;7.850;2024-03-07T11:03:57;74675.28;;;-146.25;83.49
32761;BME280;19126;47.472;7.850;2024-03-07T11:06:26;74673.28;;;-146.25;81.75
32761;BME280;19126;47.472;7.850;2024-03-07T11:08:55;74675.28;;;-146.25;80.81
32761;BME280;19126;47.472;7.850;2024-03-07T11:11:22;74683.28;;;-146.25;79.68
32761;BME280;19126;47.472;7.850;2024-03-07T11:13:52;74679.28;;;-146.25;79.34
32761;BME280;19126;47.472;7.850;2024-03-07T11:16:21;74669.25;;;-146.25;79.65
32761;BME280;19126;47.472;7.850;2024-03-07T11:19:18;74661.25;;;-146.25;80.14
32761;BME280;19126;47.472;7.850;2024-03-07T11:21:46;74655.22;;;-146.25;79.84
32761;BME280;19126;47.472;7.850;2024-03-07T11:24:26;74645.22;;;-146.25;79.80
32761;BME280;19126;47.472;7.850;2024-03-07T11:26:56;74649.22;;;-146.25;78.97
32761;BME280;19126;47.472;7.850;2024-03-07T11:29:49;74639.19;;;-146.25;79.10
32761;BME280;19126;47.472;7.850;2024-03-07T11:32:19;74637.19;;;-146.25;77.91
32761;BME280;19126;47.472;7.850;2024-03-07T11:34:48;74625.16;;;-146.25;78.95
32761;BME280;19126;47.472;7.850;2024-03-07T11:37:20;74627.16;;;-146.25;78.79
32761;BME280;19126;47.472;7.850;2024-03-07T11:40:08;74625.16;;;-146.25;78.70
32761;BME280;19126;47.472;7.850;2024-03-07T11:42:46;74619.16;;;-146.25;79.57
32761;BME280;19126;47.472;7.850;2024-03-07T11:45:16;74613.13;;;-146.25;80.96
32761;BME280;19126;47.472;7.850;2024-03-07T11:47:58;74609.13;;;-146.25;81.14
32761;BME280;19126;47.472;7.850;2024-03-07T11:50:33;74595.09;;;-146.25;81.82
32761;BME280;19126;47.472;7.850;2024-03-07T11:53:02;74591.06;;;-146.25;81.97
32761;BME280;19126;47.472;7.850;2024-03-07T11:55:31;74597.09;;;-146.25;81.14
32761;BME280;19126;47.472;7.850;2024-03-07T11:58:09;74587.06;;;-146.25;80.47
32761;BME280;19126;47.472;7.850;2024-03-07T12:00:41;74587.06;;;-146.25;80.02
32761;BME280;19126;47.472;7.850;2024-03-07T12:03:12;74595.09;;;-146.25;80.33
32761;BME280;19126;47.472;7.850;2024-03-07T12:05:41;74593.09;;;-146.25;79.79
32761;BME280;19126;47.472;7.850;2024-03-07T12:08:10;74605.13;;;-146.25;80.35
32761;BME280;19126;47.472;7.850;2024-03-07T12:10:37;74603.09;;;-146.25;80.07
32761;BME280;19126;47.472;7.850;2024-03-07T12:13:06;74603.09;;;-146.25;80.21
32761;BME280;19126;47.472;7.850;2024-03-07T12:15:34;74617.13;;;-146.25;79.58
32761;BME280;19126;47.472;7.850;2024-03-07T12:18:05;74593.09;;;-146.25;79.17
32761;BME280;19126;47.472;7.850;2024-03-07T12:20:39;74583.06;;;-146.25;78.76
32761;BME280;19126;47.472;7.850;2024-03-07T12:23:08;74583.06;;;-146.25;79.49
32761;BME280;19126;47.472;7.850;2024-03-07T12:25:37;74589.06;;;-146.25;79.11
32761;BME280;19126;47.472;7.850;2024-03-07T12:28:07;74585.06;;;-146.25;77.81
32761;BME280;19126;47.472;7.850;2024-03-07T12:30:48;74583.06;;;-146.25;76.16
32761;BME280;19126;47.472;7.850;2024-03-07T12:33:21;74591.06;;;-146.25;76.00
32761;BME280;19126;47.472;7.850;2024-03-07T12:35:52;74581.06;;;-146.25;75.95
32761;BME280;19126;47.472;7.850;2024-03-07T12:38:26;74579.06;;;-146.25;75.75
32761;BME280;19126;47.472;7.850;2024-03-07T12:41:05;74579.06;;;-146.25;76.63
32761;BME280;19126;47.472;7.850;2024-03-07T12:43:33;74573.03;;;-146.25;76.67
32761;BME280;19126;47.472;7.850;2024-03-07T12:46:01;74565.00;;;-146.25;75.97
32761;BME280;19126;47.472;7.850;2024-03-07T12:48:32;74550.97;;;-146.25;76.52
32761;BME280;19126;47.472;7.850;2024-03-07T12:50:59;74540.97;;;-146.25;75.62
32761;BME280;19126;47.472;7.850;2024-03-07T12:53:27;74534.94;;;-146.25;76.39